createdAt,value
2022-12-18T00:02:04.826Z,-1.97
2022-12-18T00:05:11.749Z,-1.81
2022-12-18T00:08:29.508Z,-1.84
2022-12-18T00:11:51.491Z,-2.08
2022-12-18T00:15:14.557Z,-1.91
2022-12-18T00:18:37.916Z,-1.94
2022-12-18T00:22:00.450Z,-2.01
2022-12-18T00:25:21.371Z,-1.95
2022-12-18T00:28:44.615Z,-1.96
2022-12-18T00:32:06.448Z,-2.01
2022-12-18T00:35:29.586Z,-1.97
2022-12-18T00:38:39.398Z,-1.99
2022-12-18T00:42:13.518Z,-1.98
2022-12-18T00:45:35.790Z,-2.08
2022-12-18T00:48:56.519Z,-1.98
2022-12-18T00:52:20.564Z,-2.05
2022-12-18T00:55:43.508Z,-2.01
2022-12-18T00:59:09.514Z,-2.01
2022-12-18T01:02:29.625Z,-2.22
2022-12-18T01:05:49.425Z,-2.01
2022-12-18T01:09:11.444Z,-2.05
2022-12-18T01:12:34.489Z,-2.09
2022-12-18T01:15:56.586Z,-2.03
2022-12-18T01:19:16.487Z,-2.13
2022-12-18T01:22:37.550Z,-2.21
2022-12-18T01:25:53.612Z,-2.27
2022-12-18T01:29:20.380Z,-2.18
2022-12-18T01:32:43.578Z,-2.20
2022-12-18T01:36:03.372Z,-2.23
2022-12-18T01:39:21.536Z,-2.20
2022-12-18T01:42:26.734Z,-2.13
2022-12-18T01:45:31.712Z,-2.13
2022-12-18T01:48:54.152Z,-2.12
2022-12-18T01:52:15.171Z,-2.17
2022-12-18T01:55:29.048Z,-2.04
2022-12-18T01:58:55.992Z,-2.09
2022-12-18T02:02:18.506Z,-2.08
2022-12-18T02:05:37.382Z,-2.12
2022-12-18T02:09:40.468Z,-2.14
2022-12-18T02:13:20.401Z,-2.07
2022-12-18T02:16:38.434Z,-2.13
2022-12-18T02:20:19.026Z,-2.08
2022-12-18T02:23:53.231Z,-2.20
2022-12-18T02:27:30.304Z,-2.14
2022-12-18T02:31:01.099Z,-2.09
2022-12-18T02:34:20.156Z,-2.27
2022-12-18T02:37:45.221Z,-2.16
2022-12-18T02:41:02.343Z,-2.12
2022-12-18T02:44:16.008Z,-2.18
2022-12-18T02:47:44.171Z,-2.37
2022-12-18T02:51:26.296Z,-2.28
2022-12-18T02:54:46.517Z,-2.22
2022-12-18T02:58:25.551Z,-2.21
2022-12-18T03:01:57.139Z,-2.25
2022-12-18T03:05:14.809Z,-2.30
2022-12-18T03:08:30.593Z,-2.36
2022-12-18T03:12:02.211Z,-2.31
2022-12-18T03:15:34.976Z,-2.35
2022-12-18T03:19:03.790Z,-2.36
2022-12-18T03:22:16.534Z,-2.37
2022-12-18T03:25:48.058Z,-2.37
2022-12-18T03:29:14.619Z,-2.40
2022-12-18T03:32:33.741Z,-2.40
2022-12-18T03:35:55.644Z,-2.38
2022-12-18T03:39:17.760Z,-2.41
2022-12-18T03:42:51.902Z,-2.43
2022-12-18T03:46:21.907Z,-2.43
2022-12-18T03:49:58.357Z,-2.51
2022-12-18T03:53:14.868Z,-2.52
2022-12-18T03:56:23.564Z,-2.50
2022-12-18T03:59:33.428Z,-2.46
2022-12-18T04:02:56.822Z,-2.48
2022-12-18T04:06:17.804Z,-2.47
2022-12-18T04:09:35.046Z,-2.42
2022-12-18T04:12:54.916Z,-2.44
2022-12-18T04:16:24.717Z,-2.45
2022-12-18T04:19:48.817Z,-2.50
2022-12-18T04:23:10.831Z,-2.53
2022-12-18T04:26:31.794Z,-2.58
2022-12-18T04:29:55.848Z,-2.63
2022-12-18T04:33:16.836Z,-2.65
2022-12-18T04:36:32.988Z,-2.71
2022-12-18T04:39:53.909Z,-2.70
2022-12-18T04:43:08.910Z,-2.65
2022-12-18T04:46:18.634Z,-2.63
2022-12-18T04:49:28.300Z,-2.62
2022-12-18T04:52:50.849Z,-2.72
2022-12-18T04:56:11.449Z,-2.70
2022-12-18T04:59:21.376Z,-2.72
2022-12-18T05:02:30.280Z,-2.78
2022-12-18T05:05:36.740Z,-2.89
2022-12-18T05:08:41.222Z,-2.74
2022-12-18T05:11:56.862Z,-2.84
2022-12-18T05:15:26.927Z,-2.85
2022-12-18T05:18:33.657Z,-2.83
2022-12-18T05:21:41.807Z,-2.79
2022-12-18T05:24:45.767Z,-2.87
2022-12-18T05:28:04.828Z,-2.80
2022-12-18T05:31:21.782Z,-2.80
2022-12-18T05:34:37.801Z,-2.87
2022-12-18T05:38:04.674Z,-2.80
2022-12-18T05:41:36.471Z,-2.85
2022-12-18T05:44:56.285Z,-2.86
2022-12-18T05:48:18.693Z,-2.85
2022-12-18T05:51:43.484Z,-2.91
2022-12-18T05:55:00.345Z,-2.90
2022-12-18T05:58:20.602Z,-2.88
2022-12-18T06:01:47.745Z,-2.94
2022-12-18T06:05:12.368Z,-2.88
2022-12-18T06:08:15.539Z,-3.05
2022-12-18T06:11:40.702Z,-3.03
2022-12-18T06:14:44.903Z,-2.99
2022-12-18T06:17:54.930Z,-2.93
2022-12-18T06:21:01.618Z,-2.91
2022-12-18T06:24:08.693Z,-2.95
2022-12-18T06:27:16.209Z,-2.97
2022-12-18T06:30:29.517Z,-2.95
2022-12-18T06:33:51.350Z,-2.93
2022-12-18T06:37:14.521Z,-2.96
2022-12-18T06:40:36.542Z,-2.98
2022-12-18T06:44:00.077Z,-3.00
2022-12-18T06:47:16.618Z,-2.97
2022-12-18T06:50:36.438Z,-3.15
2022-12-18T06:53:51.207Z,-2.96
2022-12-18T06:57:14.490Z,-2.87
2022-12-18T07:00:50.582Z,-2.86
2022-12-18T07:04:12.390Z,-2.83
2022-12-18T07:07:34.326Z,-2.82
2022-12-18T07:10:58.419Z,-2.76
2022-12-18T07:14:20.354Z,-2.71
2022-12-18T07:17:42.477Z,-2.68
2022-12-18T07:21:06.507Z,-2.62
2022-12-18T07:24:32.537Z,-2.63
2022-12-18T07:27:46.514Z,-2.59
2022-12-18T07:31:09.468Z,-2.61
2022-12-18T07:34:35.363Z,-2.57
2022-12-18T07:37:55.560Z,-2.57
2022-12-18T07:41:16.601Z,-2.46
2022-12-18T07:44:36.492Z,-2.46
2022-12-18T07:47:52.635Z,-2.43
2022-12-18T07:51:14.450Z,-2.40
2022-12-18T07:54:35.879Z,-2.37
2022-12-18T07:57:50.727Z,-2.32
2022-12-18T08:01:12.436Z,-2.27
2022-12-18T08:04:15.368Z,-2.05
2022-12-18T08:07:29.367Z,-1.95
2022-12-18T08:10:51.141Z,-1.96
2022-12-18T08:14:12.128Z,-2.03
2022-12-18T08:17:32.960Z,-2.02
2022-12-18T08:20:55.274Z,-1.99
2022-12-18T08:24:22.036Z,-1.96
2022-12-18T08:27:38.990Z,-1.94
2022-12-18T08:31:04.087Z,-1.79
2022-12-18T08:34:15.840Z,-1.79
2022-12-18T08:37:34.286Z,-1.79
2022-12-18T08:40:37.441Z,-1.75
2022-12-18T08:44:01.361Z,-1.64
2022-12-18T08:47:08.193Z,-1.58
2022-12-18T08:50:24.539Z,-1.56
2022-12-18T08:53:35.624Z,-1.71
2022-12-18T08:56:39.619Z,-1.51
2022-12-18T08:59:46.566Z,-1.36
2022-12-18T09:03:05.109Z,-1.32
2022-12-18T09:06:28.137Z,-1.25
2022-12-18T09:09:49.098Z,-1.18
2022-12-18T09:12:59.069Z,-1.20
2022-12-18T09:16:25.985Z,-1.18
2022-12-18T09:19:40.378Z,-1.02
2022-12-18T09:22:44.210Z,-0.93
2022-12-18T09:25:47.396Z,-0.96
2022-12-18T09:29:10.127Z,-0.86
2022-12-18T09:32:22.651Z,-0.95
2022-12-18T09:35:29.137Z,-0.82
2022-12-18T09:38:34.671Z,-0.81
2022-12-18T09:41:58.268Z,-0.66
2022-12-18T09:45:16.343Z,-0.44
2022-12-18T09:48:36.048Z,-0.36
2022-12-18T09:51:58.269Z,-0.37
2022-12-18T09:55:40.106Z,-0.24
2022-12-18T09:58:58.670Z,-0.25
2022-12-18T10:02:01.526Z,-0.10
2022-12-18T10:05:43.056Z,-0.04
2022-12-18T10:09:11.416Z,0.01
2022-12-18T10:13:05.086Z,0.00
2022-12-18T10:16:36.867Z,0.20
2022-12-18T10:19:42.341Z,0.29
2022-12-18T10:23:12.748Z,0.37
2022-12-18T10:26:28.953Z,0.44
2022-12-18T10:29:51.861Z,0.56
2022-12-18T10:33:12.024Z,0.35
2022-12-18T10:36:34.849Z,0.64
2022-12-18T10:40:23.672Z,0.77
2022-12-18T10:43:27.067Z,0.81
2022-12-18T10:46:30.116Z,0.78
2022-12-18T10:50:03.830Z,0.99
2022-12-18T10:53:33.818Z,1.07
2022-12-18T10:56:38.893Z,1.18
2022-12-18T11:00:02.418Z,1.31
2022-12-18T11:03:41.815Z,1.30
2022-12-18T11:07:07.919Z,1.40
2022-12-18T11:10:27.370Z,1.41
2022-12-18T11:13:39.731Z,1.40
2022-12-18T11:20:37.815Z,1.56
2022-12-18T11:23:51.753Z,1.68
2022-12-18T11:27:18.060Z,1.60
2022-12-18T11:30:38.928Z,1.85
2022-12-18T11:37:37.910Z,2.04
2022-12-18T11:40:57.146Z,2.05
2022-12-18T11:44:08.211Z,2.20
2022-12-18T11:47:45.937Z,2.36
2022-12-18T11:50:55.027Z,2.43
2022-12-18T11:54:17.997Z,2.56
2022-12-18T11:57:53.017Z,2.61
2022-12-18T12:01:04.701Z,2.72
2022-12-18T12:04:38.114Z,2.89
2022-12-18T12:08:27.316Z,2.87
2022-12-18T12:11:43.203Z,2.96
2022-12-18T12:15:25.416Z,2.65
2022-12-18T12:19:17.718Z,2.90
2022-12-18T12:22:37.585Z,2.97
2022-12-18T12:25:52.869Z,2.98
2022-12-18T12:29:20.848Z,2.96
2022-12-18T12:32:33.857Z,2.90
2022-12-18T12:36:05.468Z,2.80
2022-12-18T12:39:17.215Z,2.57
2022-12-18T12:43:01.898Z,2.43
2022-12-18T12:46:19.810Z,2.31
2022-12-18T12:49:39.042Z,2.19
2022-12-18T12:52:51.455Z,2.21
2022-12-18T12:55:56.157Z,2.12
2022-12-18T12:59:18.388Z,2.08
2022-12-18T13:02:41.502Z,1.96
2022-12-18T13:05:52.251Z,1.88
2022-12-18T13:09:01.637Z,1.84
2022-12-18T13:12:30.697Z,1.87
2022-12-18T13:15:55.890Z,1.87
2022-12-18T13:19:27.570Z,1.84
2022-12-18T13:22:50.518Z,1.81
2022-12-18T13:26:29.036Z,1.87
2022-12-18T13:29:47.002Z,1.95
2022-12-18T13:33:24.246Z,1.83
2022-12-18T13:36:33.784Z,1.77
2022-12-18T13:39:41.002Z,1.78
2022-12-18T13:43:17.551Z,1.92
2022-12-18T13:46:43.730Z,1.89
2022-12-18T13:49:49.694Z,1.80
2022-12-18T13:52:59.308Z,1.71
2022-12-18T13:56:16.060Z,1.62
2022-12-18T13:59:46.622Z,1.52
2022-12-18T14:03:07.520Z,1.40
2022-12-18T14:06:33.542Z,1.32
2022-12-18T14:10:06.491Z,1.25
2022-12-18T14:13:31.847Z,1.21
2022-12-18T14:16:44.685Z,1.13
2022-12-18T14:19:51.237Z,1.06
2022-12-18T14:22:59.160Z,1.01
2022-12-18T14:26:29.491Z,0.99
2022-12-18T14:29:32.672Z,0.93
2022-12-18T14:32:49.958Z,0.88
2022-12-18T14:36:11.383Z,0.85
2022-12-18T14:39:33.219Z,0.80
2022-12-18T14:42:58.056Z,0.74
2022-12-18T14:46:02.889Z,0.70
2022-12-18T14:49:40.913Z,0.59
2022-12-18T14:53:03.079Z,0.51
2022-12-18T14:56:25.062Z,0.43
2022-12-18T14:59:34.884Z,0.38
2022-12-18T15:02:58.303Z,0.32
2022-12-18T15:06:37.140Z,0.26
2022-12-18T15:10:05.328Z,0.43
2022-12-18T15:13:10.958Z,0.56
2022-12-18T15:16:34.110Z,0.54
2022-12-18T15:20:04.325Z,0.44
2022-12-18T15:23:25.167Z,0.43
2022-12-18T15:26:49.477Z,0.37
2022-12-18T15:30:27.515Z,0.40
2022-12-18T15:33:36.121Z,0.39
2022-12-18T15:36:52.299Z,0.43
2022-12-18T15:40:08.871Z,0.39
2022-12-18T15:43:41.363Z,0.39
2022-12-18T15:47:02.192Z,0.20
2022-12-18T15:50:12.056Z,0.23
2022-12-18T15:53:28.128Z,0.24
2022-12-18T15:57:19.046Z,0.24
2022-12-18T16:00:32.260Z,0.21
2022-12-18T16:03:52.118Z,0.15
2022-12-18T16:07:24.585Z,0.01
2022-12-18T16:10:36.573Z,-0.19
2022-12-18T16:13:58.977Z,-0.36
2022-12-18T16:17:16.152Z,-0.49
2022-12-18T16:20:38.977Z,-0.48
2022-12-18T16:23:59.200Z,-0.54
2022-12-18T16:27:15.063Z,-0.57
2022-12-18T16:30:47.842Z,-0.57
2022-12-18T16:34:35.648Z,-0.56
2022-12-18T16:37:40.613Z,-0.62
2022-12-18T16:41:09.330Z,-0.73
2022-12-18T16:44:16.100Z,-0.86
2022-12-18T16:47:29.029Z,-0.90
2022-12-18T16:50:49.215Z,-0.96
2022-12-18T16:53:56.923Z,-0.97
2022-12-18T16:57:00.961Z,-0.99
2022-12-18T17:00:25.499Z,-0.98
2022-12-18T17:03:44.764Z,-1.02
2022-12-18T17:07:06.044Z,-1.11
2022-12-18T17:10:21.671Z,-1.16
2022-12-18T17:13:27.614Z,-1.15
2022-12-18T17:16:40.574Z,-1.12
2022-12-18T17:20:04.826Z,-1.15
2022-12-18T17:23:15.338Z,-1.19
2022-12-18T17:26:35.137Z,-1.25
2022-12-18T17:29:58.877Z,-1.34
2022-12-18T17:33:22.833Z,-1.32
2022-12-18T17:36:42.783Z,-1.18
2022-12-18T17:40:08.384Z,-1.08
2022-12-18T17:43:24.171Z,-1.10
2022-12-18T17:46:49.955Z,-1.11
2022-12-18T17:50:21.704Z,-1.18
2022-12-18T17:53:43.153Z,-1.18
2022-12-18T17:56:54.359Z,-1.23
2022-12-18T17:59:57.446Z,-1.30
2022-12-18T18:03:01.358Z,-1.34
2022-12-18T18:06:11.546Z,-1.40
2022-12-18T18:09:31.726Z,-1.47
2022-12-18T18:13:06.795Z,-1.44
2022-12-18T18:16:18.501Z,-1.57
2022-12-18T18:19:38.643Z,-1.56
2022-12-18T18:22:59.760Z,-1.39
2022-12-18T18:26:09.697Z,-1.34
2022-12-18T18:29:24.071Z,-1.40
2022-12-18T18:32:33.735Z,-1.37
2022-12-18T18:35:55.536Z,-1.41
2022-12-18T18:39:09.505Z,-1.45
2022-12-18T18:42:33.655Z,-1.57
2022-12-18T18:45:48.534Z,-1.56
2022-12-18T18:49:08.033Z,-1.63
2022-12-18T18:52:19.995Z,-1.66
2022-12-18T18:55:42.544Z,-1.66
2022-12-18T18:59:16.474Z,-1.69
2022-12-18T19:02:27.401Z,-1.82
2022-12-18T19:05:50.463Z,-1.77
2022-12-18T19:09:24.457Z,-1.73
2022-12-18T19:13:04.457Z,-1.75
2022-12-18T19:16:09.815Z,-1.78
2022-12-18T19:19:27.428Z,-1.81
2022-12-18T19:22:55.571Z,-1.95
2022-12-18T19:26:27.412Z,-2.04
2022-12-18T19:29:42.463Z,-2.03
2022-12-18T19:33:19.870Z,-2.03
2022-12-18T19:36:29.503Z,-1.93
2022-12-18T19:39:45.443Z,-1.96
2022-12-18T19:43:02.524Z,-1.99
2022-12-18T19:46:26.440Z,-2.14
2022-12-18T19:49:53.385Z,-2.23
2022-12-18T19:53:16.401Z,-2.28
2022-12-18T19:56:37.347Z,-2.24
2022-12-18T20:00:00.334Z,-2.24
2022-12-18T20:03:25.229Z,-2.20
2022-12-18T20:06:51.452Z,-2.17
2022-12-18T20:10:09.225Z,-2.29
2022-12-18T20:13:32.348Z,-2.27
2022-12-18T20:16:52.539Z,-2.34
2022-12-18T20:20:13.409Z,-2.26
2022-12-18T20:23:33.299Z,-2.23
2022-12-18T20:26:54.285Z,-2.40
2022-12-18T20:30:04.262Z,-2.35
2022-12-18T20:33:11.402Z,-2.45
2022-12-18T20:36:21.321Z,-2.34
2022-12-18T20:39:39.271Z,-2.35
2022-12-18T20:42:56.500Z,-2.37
2022-12-18T20:46:15.259Z,-2.40
2022-12-18T20:49:39.552Z,-2.44
2022-12-18T20:53:09.007Z,-2.41
2022-12-18T20:56:32.494Z,-2.52
2022-12-18T20:59:48.603Z,-2.62
2022-12-18T21:03:08.440Z,-2.60
2022-12-18T21:06:35.198Z,-2.64
2022-12-18T21:09:55.283Z,-2.67
2022-12-18T21:13:18.136Z,-2.59
2022-12-18T21:16:38.433Z,-2.51
2022-12-18T21:19:53.583Z,-2.50
2022-12-18T21:23:05.846Z,-2.50
2022-12-18T21:26:21.301Z,-2.51
2022-12-18T21:29:26.955Z,-2.51
2022-12-18T21:32:33.842Z,-2.48
2022-12-18T21:35:36.645Z,-2.35
2022-12-18T21:38:43.383Z,-2.37
2022-12-18T21:42:12.852Z,-2.39
2022-12-18T21:45:27.196Z,-2.37
2022-12-18T21:48:48.937Z,-2.36
2022-12-18T21:52:07.068Z,-2.39
2022-12-18T21:55:34.358Z,-2.39
2022-12-18T21:58:57.208Z,-2.52
2022-12-18T22:02:02.079Z,-2.56
2022-12-18T22:05:25.031Z,-2.48
2022-12-18T22:09:02.046Z,-2.55
2022-12-18T22:12:33.944Z,-2.61
2022-12-18T22:15:47.168Z,-2.61
2022-12-18T22:19:10.230Z,-2.62
2022-12-18T22:22:33.981Z,-2.66
2022-12-18T22:25:54.045Z,-2.68
2022-12-18T22:29:29.655Z,-2.73
2022-12-18T22:32:41.519Z,-2.75
2022-12-18T22:35:54.055Z,-2.79
2022-12-18T22:39:16.987Z,-2.81
2022-12-18T22:42:38.010Z,-2.82
2022-12-18T22:45:57.944Z,-2.89
2022-12-18T22:49:07.781Z,-2.86
2022-12-18T22:52:15.597Z,-2.88
2022-12-18T22:55:26.133Z,-3.02
2022-12-18T22:58:41.874Z,-2.95
2022-12-18T23:02:05.104Z,-3.01
2022-12-18T23:05:19.195Z,-3.10
2022-12-18T23:08:22.378Z,-3.13
2022-12-18T23:11:32.039Z,-3.10
2022-12-18T23:14:38.277Z,-3.12
2022-12-18T23:17:41.104Z,-3.10
2022-12-18T23:20:48.730Z,-3.14
2022-12-18T23:24:06.572Z,-3.18
2022-12-18T23:27:28.548Z,-3.20
2022-12-18T23:30:50.591Z,-3.19
2022-12-18T23:34:13.639Z,-3.15
2022-12-18T23:37:58.302Z,-3.11
2022-12-18T23:40:59.835Z,-2.92
2022-12-18T23:44:21.570Z,-2.85
2022-12-18T23:47:37.994Z,-2.73
2022-12-18T23:50:57.740Z,-2.65
2022-12-18T23:54:32.670Z,-2.60
2022-12-18T23:57:50.695Z,-2.52
